WMGK1: Kansas River, Wamego, KS

                                SHEF ID:       WMGK1     Kansas River, Wamego, KS
STATION TYPE:

PRECIP STAGE STAGE(2) RIV-FLOW BAT-LOAD
in ft ft cfs volt
Ccp-Rev Ccp-Rev Ccp-Rev Ccp-Rev Ccp-Rev
(America/Chicago)
09/12 00:00 ---- 3.96 3.97 1480 12.40
09/12 01:00 ---- 4.05 4.06 1599 12.40
09/12 02:00 ---- 4.16 4.16 1750 12.37
09/12 03:00 ---- 4.29 4.28 1937 12.37
09/12 04:00 ---- 4.41 4.41 2117 12.34
09/12 05:00 ---- 4.55 4.53 2337 12.34
09/12 06:00 ---- 4.69 4.67 2567 12.31
09/12 07:00 ---- 4.85 4.83 2819 12.31
09/12 08:00 ---- 5.03 5.01 3113 12.32
09/12 09:00 ---- 5.24 5.18 3474 12.36
09/12 10:00 ---- 5.45 5.40 3853 13.11
09/12 11:00 ---- 5.66 5.64 4229 13.06
09/12 12:00 ---- 5.87 5.86 4632 12.99
09/12 13:00 ---- 6.06 6.07 5035 12.97
09/12 14:00 ---- 6.24 6.25 5431 12.92
09/12 15:00 ---- 6.41 6.42 5817 12.90
09/12 16:00 ---- 6.55 6.56 6144 12.86
09/12 17:00 ---- 6.69 6.71 6478 12.77
09/12 18:00 ---- 6.81 6.82 6771 12.65
09/12 19:00 ---- 6.93 6.94 7069 12.57
09/12 20:00 ---- 7.03 7.03 7322 12.50
09/12 21:00 ---- 7.10 7.14 7501 12.47
09/12 22:00 ---- 7.21 7.23 7787 12.44
09/12 23:00 ---- 7.27 7.30 7945 12.42
Data processed at Sat 13Sep2025 04:45 GMT

Parsing this webpage?

Checkout our new Data API! CWMSDataAPI (CDA)

Timeseries IDs (TSIDs)

TSIDs used from left to right in the data table
WGKS.Precip-Inc.Total.1Hour.1Hour.Ccp-Rev
WGKS.Stage.Inst.1Hour.0.Ccp-Rev
WGKS.Stage-Alt.Inst.1Hour.0.Ccp-Rev
WGKS.Flow.Inst.1Hour.0.Ccp-Rev
WGKS.Volt-Battery Load.Inst.1Hour.0.Ccp-Rev

                            

All information presented herein is the property of the government of the United States of America and may be revised or deleted at any time without prior notice. Dissemination of this information without the expressed written consent of the Public Affairs Office, Tulsa District U.S. Army Corps of Engineers is strictly prohibited. These data are gathered electronically and, as presented, have NOT undergone any form of quality control. These data are NOT guaranteed to be valid or correct.